Nonthaburi, Thailand
Current Conditions -  °F | °C
As of 1:30 AM on Monday 24 Nov 2014 (Local Time) from VTBD Reporting Station
Clear Clear  
Wind Chill: 81°   Ceiling: Unl
Heat Index: 84°   Visibility: 6mi
Dew Point: 70°   Wind: 8mph
Humidity: 70%   Direction: 350°N
Pressure: 29.85"   Gusts: NA
Location:  13.84°N, 100.52°E
Report Text: VTBD 231830Z 35007KT 9000 NSC 27/21 Q1011 NOSIG
Loading
Personal Weather Stations






























Interactive Weather Map New forecast layout! Learn more

10-Day Weather Forecast

Advertisements
Track Severe Weather on mobile